sensor_id;sensor_type;location;lat;lon;timestamp;P1;durP1;ratioP1;P2;durP2;ratioP2
22334;SDS011;11335;43.848;25.958;2023-08-12T00:00:37;5.53;;;4.25;;
22334;SDS011;11335;43.848;25.958;2023-08-12T00:04:21;5.68;;;4.30;;
22334;SDS011;11335;43.848;25.958;2023-08-12T00:08:05;5.65;;;3.90;;
22334;SDS011;11335;43.848;25.958;2023-08-12T00:11:50;5.32;;;4.18;;
22334;SDS011;11335;43.848;25.958;2023-08-12T00:15:34;5.32;;;4.00;;
22334;SDS011;11335;43.848;25.958;2023-08-12T00:19:18;6.13;;;4.35;;
22334;SDS011;11335;43.848;25.958;2023-08-12T00:23:02;6.63;;;4.20;;
22334;SDS011;11335;43.848;25.958;2023-08-12T00:26:47;6.75;;;3.90;;
22334;SDS011;11335;43.848;25.958;2023-08-12T00:30:31;8.35;;;4.45;;
22334;SDS011;11335;43.848;25.958;2023-08-12T00:34:15;6.47;;;4.28;;
22334;SDS011;11335;43.848;25.958;2023-08-12T00:37:59;6.43;;;4.20;;
22334;SDS011;11335;43.848;25.958;2023-08-12T00:41:43;8.80;;;4.20;;
22334;SDS011;11335;43.848;25.958;2023-08-12T00:45:28;8.90;;;4.38;;
22334;SDS011;11335;43.848;25.958;2023-08-12T00:49:12;11.43;;;4.80;;
22334;SDS011;11335;43.848;25.958;2023-08-12T00:52:59;7.15;;;4.07;;
22334;SDS011;11335;43.848;25.958;2023-08-12T00:56:43;8.57;;;4.63;;
22334;SDS011;11335;43.848;25.958;2023-08-12T01:00:29;9.07;;;4.65;;
22334;SDS011;11335;43.848;25.958;2023-08-12T01:04:13;13.43;;;4.75;;
22334;SDS011;11335;43.848;25.958;2023-08-12T01:07:58;11.07;;;4.93;;
22334;SDS011;11335;43.848;25.958;2023-08-12T01:11:44;8.85;;;4.50;;
22334;SDS011;11335;43.848;25.958;2023-08-12T01:15:39;8.02;;;4.90;;
22334;SDS011;11335;43.848;25.958;2023-08-12T01:19:38;9.95;;;4.82;;
22334;SDS011;11335;43.848;25.958;2023-08-12T01:23:23;9.75;;;4.43;;
22334;SDS011;11335;43.848;25.958;2023-08-12T01:27:10;5.78;;;4.82;;
22334;SDS011;11335;43.848;25.958;2023-08-12T01:30:58;8.68;;;5.10;;
22334;SDS011;11335;43.848;25.958;2023-08-12T01:38:58;7.20;;;5.00;;
22334;SDS011;11335;43.848;25.958;2023-08-12T01:42:45;8.32;;;4.75;;
22334;SDS011;11335;43.848;25.958;2023-08-12T01:46:30;7.57;;;4.80;;
22334;SDS011;11335;43.848;25.958;2023-08-12T01:50:14;5.90;;;4.60;;
22334;SDS011;11335;43.848;25.958;2023-08-12T01:53:59;5.70;;;4.97;;
22334;SDS011;11335;43.848;25.958;2023-08-12T01:57:43;7.53;;;5.00;;
22334;SDS011;11335;43.848;25.958;2023-08-12T02:01:27;7.80;;;4.63;;
22334;SDS011;11335;43.848;25.958;2023-08-12T02:05:11;7.25;;;4.93;;
22334;SDS011;11335;43.848;25.958;2023-08-12T02:08:56;7.28;;;4.97;;
22334;SDS011;11335;43.848;25.958;2023-08-12T02:12:40;6.53;;;5.13;;
22334;SDS011;11335;43.848;25.958;2023-08-12T02:16:24;6.53;;;5.00;;
22334;SDS011;11335;43.848;25.958;2023-08-12T02:20:09;6.07;;;4.72;;
22334;SDS011;11335;43.848;25.958;2023-08-12T02:23:53;6.60;;;4.90;;
22334;SDS011;11335;43.848;25.958;2023-08-12T02:27:37;7.97;;;4.95;;
22334;SDS011;11335;43.848;25.958;2023-08-12T02:31:21;5.88;;;5.10;;
22334;SDS011;11335;43.848;25.958;2023-08-12T02:35:06;5.85;;;5.10;;
22334;SDS011;11335;43.848;25.958;2023-08-12T02:38:50;5.38;;;4.88;;
22334;SDS011;11335;43.848;25.958;2023-08-12T02:42:34;8.68;;;5.72;;
22334;SDS011;11335;43.848;25.958;2023-08-12T02:46:18;10.43;;;6.03;;
22334;SDS011;11335;43.848;25.958;2023-08-12T02:50:03;10.50;;;5.95;;
22334;SDS011;11335;43.848;25.958;2023-08-12T02:53:47;7.22;;;6.10;;
22334;SDS011;11335;43.848;25.958;2023-08-12T02:57:31;8.15;;;5.50;;
22334;SDS011;11335;43.848;25.958;2023-08-12T03:01:16;6.18;;;5.50;;
22334;SDS011;11335;43.848;25.958;2023-08-12T03:05:01;7.05;;;5.75;;
22334;SDS011;11335;43.848;25.958;2023-08-12T03:08:45;7.30;;;5.05;;
22334;SDS011;11335;43.848;25.958;2023-08-12T03:12:30;7.22;;;5.35;;
22334;SDS011;11335;43.848;25.958;2023-08-12T03:16:14;7.05;;;5.45;;
22334;SDS011;11335;43.848;25.958;2023-08-12T03:19:58;7.45;;;5.47;;
22334;SDS011;11335;43.848;25.958;2023-08-12T03:23:43;6.82;;;6.13;;
22334;SDS011;11335;43.848;25.958;2023-08-12T03:27:27;10.80;;;5.95;;
22334;SDS011;11335;43.848;25.958;2023-08-12T03:31:11;10.98;;;5.78;;
22334;SDS011;11335;43.848;25.958;2023-08-12T03:34:55;9.02;;;5.78;;
22334;SDS011;11335;43.848;25.958;2023-08-12T03:38:39;8.55;;;5.55;;
22334;SDS011;11335;43.848;25.958;2023-08-12T03:42:24;10.82;;;5.82;;
22334;SDS011;11335;43.848;25.958;2023-08-12T03:46:08;9.77;;;5.97;;
22334;SDS011;11335;43.848;25.958;2023-08-12T03:49:52;8.55;;;5.70;;
22334;SDS011;11335;43.848;25.958;2023-08-12T03:53:36;9.63;;;6.20;;
22334;SDS011;11335;43.848;25.958;2023-08-12T03:57:21;7.13;;;6.00;;
22334;SDS011;11335;43.848;25.958;2023-08-12T04:01:05;10.02;;;6.30;;
22334;SDS011;11335;43.848;25.958;2023-08-12T04:04:49;9.13;;;6.40;;
22334;SDS011;11335;43.848;25.958;2023-08-12T04:08:37;7.80;;;5.95;;
22334;SDS011;11335;43.848;25.958;2023-08-12T04:12:21;6.35;;;5.68;;
22334;SDS011;11335;43.848;25.958;2023-08-12T04:16:06;8.63;;;5.75;;
22334;SDS011;11335;43.848;25.958;2023-08-12T04:19:50;12.00;;;6.28;;
22334;SDS011;11335;43.848;25.958;2023-08-12T04:23:35;8.18;;;5.88;;
22334;SDS011;11335;43.848;25.958;2023-08-12T04:27:19;12.43;;;6.30;;
22334;SDS011;11335;43.848;25.958;2023-08-12T04:31:05;7.95;;;5.90;;
22334;SDS011;11335;43.848;25.958;2023-08-12T04:34:50;6.85;;;5.78;;
22334;SDS011;11335;43.848;25.958;2023-08-12T04:38:34;10.20;;;6.22;;
22334;SDS011;11335;43.848;25.958;2023-08-12T04:42:19;6.25;;;5.47;;
22334;SDS011;11335;43.848;25.958;2023-08-12T04:46:03;9.45;;;6.00;;
22334;SDS011;11335;43.848;25.958;2023-08-12T04:49:48;7.00;;;5.80;;
22334;SDS011;11335;43.848;25.958;2023-08-12T04:53:32;8.07;;;5.60;;
22334;SDS011;11335;43.848;25.958;2023-08-12T04:57:16;8.88;;;5.70;;
22334;SDS011;11335;43.848;25.958;2023-08-12T05:01:01;8.25;;;6.03;;
22334;SDS011;11335;43.848;25.958;2023-08-12T05:04:51;9.68;;;6.35;;
22334;SDS011;11335;43.848;25.958;2023-08-12T05:08:36;12.60;;;6.90;;
22334;SDS011;11335;43.848;25.958;2023-08-12T05:12:20;11.60;;;6.50;;
22334;SDS011;11335;43.848;25.958;2023-08-12T05:16:05;11.40;;;6.95;;
22334;SDS011;11335;43.848;25.958;2023-08-12T05:19:50;10.65;;;6.65;;
22334;SDS011;11335;43.848;25.958;2023-08-12T05:23:36;14.23;;;6.93;;
22334;SDS011;11335;43.848;25.958;2023-08-12T05:27:20;9.20;;;7.40;;
22334;SDS011;11335;43.848;25.958;2023-08-12T05:31:04;9.52;;;7.03;;
22334;SDS011;11335;43.848;25.958;2023-08-12T05:34:50;8.60;;;6.90;;
22334;SDS011;11335;43.848;25.958;2023-08-12T05:38:34;10.25;;;7.68;;
22334;SDS011;11335;43.848;25.958;2023-08-12T05:42:18;11.00;;;7.32;;
22334;SDS011;11335;43.848;25.958;2023-08-12T05:46:02;8.93;;;7.40;;
22334;SDS011;11335;43.848;25.958;2023-08-12T05:49:47;8.45;;;6.97;;
22334;SDS011;11335;43.848;25.958;2023-08-12T05:53:31;8.55;;;7.47;;
22334;SDS011;11335;43.848;25.958;2023-08-12T05:57:15;8.13;;;6.95;;
22334;SDS011;11335;43.848;25.958;2023-08-12T06:00:59;11.27;;;6.90;;
22334;SDS011;11335;43.848;25.958;2023-08-12T06:04:44;9.65;;;7.22;;
22334;SDS011;11335;43.848;25.958;2023-08-12T06:08:29;10.20;;;7.50;;
22334;SDS011;11335;43.848;25.958;2023-08-12T06:12:13;14.65;;;7.15;;
22334;SDS011;11335;43.848;25.958;2023-08-12T06:15:57;12.23;;;6.32;;
22334;SDS011;11335;43.848;25.958;2023-08-12T06:19:41;8.82;;;6.55;;
22334;SDS011;11335;43.848;25.958;2023-08-12T06:23:25;11.65;;;6.85;;
22334;SDS011;11335;43.848;25.958;2023-08-12T06:27:10;8.73;;;6.40;;
22334;SDS011;11335;43.848;25.958;2023-08-12T06:30:55;13.63;;;6.72;;
22334;SDS011;11335;43.848;25.958;2023-08-12T06:34:40;8.05;;;6.63;;
22334;SDS011;11335;43.848;25.958;2023-08-12T06:38:25;10.77;;;6.57;;
22334;SDS011;11335;43.848;25.958;2023-08-12T06:42:09;11.38;;;6.20;;
22334;SDS011;11335;43.848;25.958;2023-08-12T06:45:54;8.70;;;6.68;;
22334;SDS011;11335;43.848;25.958;2023-08-12T06:49:38;8.50;;;6.40;;
22334;SDS011;11335;43.848;25.958;2023-08-12T06:53:22;10.50;;;6.20;;
22334;SDS011;11335;43.848;25.958;2023-08-12T06:57:08;7.82;;;6.00;;
22334;SDS011;11335;43.848;25.958;2023-08-12T07:00:52;11.60;;;6.63;;
22334;SDS011;11335;43.848;25.958;2023-08-12T07:04:36;11.40;;;6.65;;
22334;SDS011;11335;43.848;25.958;2023-08-12T07:08:20;10.60;;;6.18;;
22334;SDS011;11335;43.848;25.958;2023-08-12T07:12:05;11.50;;;6.72;;
22334;SDS011;11335;43.848;25.958;2023-08-12T07:15:49;8.93;;;6.10;;
22334;SDS011;11335;43.848;25.958;2023-08-12T07:19:33;8.40;;;6.28;;
22334;SDS011;11335;43.848;25.958;2023-08-12T07:23:18;10.57;;;6.20;;
22334;SDS011;11335;43.848;25.958;2023-08-12T07:27:02;15.65;;;6.22;;
22334;SDS011;11335;43.848;25.958;2023-08-12T07:30:47;11.18;;;5.93;;
22334;SDS011;11335;43.848;25.958;2023-08-12T07:34:32;8.45;;;5.72;;
22334;SDS011;11335;43.848;25.958;2023-08-12T07:38:16;8.70;;;5.57;;
22334;SDS011;11335;43.848;25.958;2023-08-12T07:42:01;11.32;;;6.18;;
22334;SDS011;11335;43.848;25.958;2023-08-12T07:45:45;9.65;;;6.05;;
22334;SDS011;11335;43.848;25.958;2023-08-12T07:49:29;9.35;;;5.82;;
22334;SDS011;11335;43.848;25.958;2023-08-12T07:53:13;11.00;;;6.28;;
22334;SDS011;11335;43.848;25.958;2023-08-12T07:56:57;9.60;;;5.88;;
22334;SDS011;11335;43.848;25.958;2023-08-12T08:00:42;8.50;;;5.68;;
22334;SDS011;11335;43.848;25.958;2023-08-12T08:04:26;7.82;;;5.75;;
22334;SDS011;11335;43.848;25.958;2023-08-12T08:08:10;5.93;;;5.15;;
22334;SDS011;11335;43.848;25.958;2023-08-12T08:11:54;8.88;;;5.70;;
22334;SDS011;11335;43.848;25.958;2023-08-12T08:15:39;12.05;;;6.10;;
22334;SDS011;11335;43.848;25.958;2023-08-12T08:19:25;9.07;;;5.80;;
22334;SDS011;11335;43.848;25.958;2023-08-12T08:23:09;6.28;;;5.38;;
22334;SDS011;11335;43.848;25.958;2023-08-12T08:26:56;8.65;;;6.00;;
22334;SDS011;11335;43.848;25.958;2023-08-12T08:30:40;10.85;;;5.78;;
22334;SDS011;11335;43.848;25.958;2023-08-12T08:34:24;8.00;;;5.28;;
22334;SDS011;11335;43.848;25.958;2023-08-12T08:38:09;6.90;;;5.47;;
22334;SDS011;11335;43.848;25.958;2023-08-12T08:41:54;7.65;;;5.50;;
22334;SDS011;11335;43.848;25.958;2023-08-12T08:45:38;18.13;;;7.45;;
22334;SDS011;11335;43.848;25.958;2023-08-12T08:49:23;6.78;;;5.43;;
22334;SDS011;11335;43.848;25.958;2023-08-12T08:53:07;6.00;;;5.07;;
22334;SDS011;11335;43.848;25.958;2023-08-12T08:56:52;7.82;;;5.20;;
22334;SDS011;11335;43.848;25.958;2023-08-12T09:00:37;5.55;;;5.05;;
22334;SDS011;11335;43.848;25.958;2023-08-12T09:04:23;11.85;;;6.80;;
22334;SDS011;11335;43.848;25.958;2023-08-12T09:08:07;9.35;;;5.25;;
22334;SDS011;11335;43.848;25.958;2023-08-12T09:11:55;10.68;;;4.88;;
22334;SDS011;11335;43.848;25.958;2023-08-12T09:15:40;10.48;;;4.88;;
22334;SDS011;11335;43.848;25.958;2023-08-12T09:19:25;6.07;;;5.07;;
22334;SDS011;11335;43.848;25.958;2023-08-12T09:23:09;5.75;;;5.05;;
22334;SDS011;11335;43.848;25.958;2023-08-12T09:26:54;7.57;;;4.70;;
22334;SDS011;11335;43.848;25.958;2023-08-12T09:30:49;7.38;;;5.15;;
22334;SDS011;11335;43.848;25.958;2023-08-12T09:34:34;7.18;;;4.70;;
22334;SDS011;11335;43.848;25.958;2023-08-12T09:38:19;10.02;;;5.10;;
22334;SDS011;11335;43.848;25.958;2023-08-12T09:42:04;6.05;;;4.78;;
22334;SDS011;11335;43.848;25.958;2023-08-12T09:45:49;7.95;;;5.07;;
22334;SDS011;11335;43.848;25.958;2023-08-12T09:49:34;5.90;;;4.90;;
22334;SDS011;11335;43.848;25.958;2023-08-12T09:53:18;10.90;;;4.63;;
22334;SDS011;11335;43.848;25.958;2023-08-12T09:57:04;9.25;;;4.65;;
22334;SDS011;11335;43.848;25.958;2023-08-12T10:00:51;4.97;;;4.45;;
22334;SDS011;11335;43.848;25.958;2023-08-12T10:04:38;7.65;;;4.47;;
22334;SDS011;11335;43.848;25.958;2023-08-12T10:08:23;9.23;;;4.78;;
22334;SDS011;11335;43.848;25.958;2023-08-12T10:12:08;6.95;;;5.05;;
22334;SDS011;11335;43.848;25.958;2023-08-12T10:15:52;12.55;;;4.60;;
22334;SDS011;11335;43.848;25.958;2023-08-12T10:19:37;5.25;;;4.50;;
22334;SDS011;11335;43.848;25.958;2023-08-12T10:23:22;6.15;;;4.30;;
22334;SDS011;11335;43.848;25.958;2023-08-12T10:27:06;7.03;;;4.95;;
22334;SDS011;11335;43.848;25.958;2023-08-12T10:30:51;9.48;;;4.45;;
22334;SDS011;11335;43.848;25.958;2023-08-12T10:34:35;14.55;;;4.57;;
22334;SDS011;11335;43.848;25.958;2023-08-12T10:38:31;7.85;;;4.90;;
22334;SDS011;11335;43.848;25.958;2023-08-12T10:46:34;6.05;;;4.45;;
22334;SDS011;11335;43.848;25.958;2023-08-12T10:50:24;4.78;;;4.18;;
22334;SDS011;11335;43.848;25.958;2023-08-12T10:54:35;6.68;;;4.10;;
22334;SDS011;11335;43.848;25.958;2023-08-12T10:58:34;4.63;;;4.13;;
22334;SDS011;11335;43.848;25.958;2023-08-12T11:02:31;7.90;;;4.25;;
22334;SDS011;11335;43.848;25.958;2023-08-12T11:06:19;6.30;;;4.55;;
22334;SDS011;11335;43.848;25.958;2023-08-12T11:10:17;6.60;;;4.45;;
22334;SDS011;11335;43.848;25.958;2023-08-12T11:14:11;8.52;;;4.00;;
22334;SDS011;11335;43.848;25.958;2023-08-12T11:17:55;5.10;;;4.20;;
22334;SDS011;11335;43.848;25.958;2023-08-12T11:21:40;4.40;;;4.00;;
22334;SDS011;11335;43.848;25.958;2023-08-12T11:25:30;7.95;;;4.32;;
22334;SDS011;11335;43.848;25.958;2023-08-12T11:29:15;5.00;;;3.72;;
22334;SDS011;11335;43.848;25.958;2023-08-12T11:33:01;9.32;;;4.72;;
22334;SDS011;11335;43.848;25.958;2023-08-12T11:36:45;5.25;;;3.60;;
22334;SDS011;11335;43.848;25.958;2023-08-12T11:40:31;5.78;;;3.70;;
22334;SDS011;11335;43.848;25.958;2023-08-12T11:44:16;7.75;;;4.00;;
22334;SDS011;11335;43.848;25.958;2023-08-12T11:48:07;7.82;;;3.72;;
22334;SDS011;11335;43.848;25.958;2023-08-12T11:51:51;5.20;;;3.50;;
22334;SDS011;11335;43.848;25.958;2023-08-12T11:55:36;4.15;;;3.75;;
22334;SDS011;11335;43.848;25.958;2023-08-12T11:59:21;4.07;;;3.33;;
22334;SDS011;11335;43.848;25.958;2023-08-12T12:03:06;6.30;;;3.70;;
22334;SDS011;11335;43.848;25.958;2023-08-12T12:06:50;5.55;;;3.42;;
22334;SDS011;11335;43.848;25.958;2023-08-12T12:10:35;5.55;;;3.50;;
22334;SDS011;11335;43.848;25.958;2023-08-12T12:14:20;7.60;;;3.65;;
22334;SDS011;11335;43.848;25.958;2023-08-12T12:18:08;5.20;;;3.40;;
22334;SDS011;11335;43.848;25.958;2023-08-12T12:21:56;7.30;;;2.97;;
22334;SDS011;11335;43.848;25.958;2023-08-12T12:25:40;4.32;;;3.33;;
22334;SDS011;11335;43.848;25.958;2023-08-12T12:29:25;5.78;;;3.33;;
22334;SDS011;11335;43.848;25.958;2023-08-12T12:33:09;5.78;;;3.25;;
22334;SDS011;11335;43.848;25.958;2023-08-12T12:36:54;9.40;;;3.72;;
22334;SDS011;11335;43.848;25.958;2023-08-12T12:40:38;7.28;;;3.53;;
22334;SDS011;11335;43.848;25.958;2023-08-12T12:44:23;4.43;;;3.40;;
22334;SDS011;11335;43.848;25.958;2023-08-12T12:48:07;5.20;;;3.67;;
22334;SDS011;11335;43.848;25.958;2023-08-12T12:51:51;6.57;;;3.50;;
22334;SDS011;11335;43.848;25.958;2023-08-12T12:55:36;3.85;;;3.17;;
22334;SDS011;11335;43.848;25.958;2023-08-12T12:59:20;3.63;;;3.22;;
22334;SDS011;11335;43.848;25.958;2023-08-12T13:03:04;4.30;;;3.42;;
22334;SDS011;11335;43.848;25.958;2023-08-12T13:06:49;4.03;;;2.95;;
22334;SDS011;11335;43.848;25.958;2023-08-12T13:10:33;8.43;;;3.22;;
22334;SDS011;11335;43.848;25.958;2023-08-12T13:14:21;3.63;;;2.70;;
22334;SDS011;11335;43.848;25.958;2023-08-12T13:18:05;3.22;;;2.70;;
22334;SDS011;11335;43.848;25.958;2023-08-12T13:21:50;3.33;;;2.80;;
22334;SDS011;11335;43.848;25.958;2023-08-12T13:25:34;4.05;;;3.10;;
22334;SDS011;11335;43.848;25.958;2023-08-12T13:29:18;3.22;;;2.38;;
22334;SDS011;11335;43.848;25.958;2023-08-12T13:33:03;5.60;;;2.60;;
22334;SDS011;11335;43.848;25.958;2023-08-12T13:36:48;7.50;;;3.10;;
22334;SDS011;11335;43.848;25.958;2023-08-12T13:40:32;9.48;;;3.33;;
22334;SDS011;11335;43.848;25.958;2023-08-12T13:44:16;4.90;;;3.78;;
22334;SDS011;11335;43.848;25.958;2023-08-12T13:48:01;6.95;;;3.53;;
22334;SDS011;11335;43.848;25.958;2023-08-12T13:51:45;6.15;;;3.75;;
22334;SDS011;11335;43.848;25.958;2023-08-12T13:55:31;5.03;;;3.60;;
22334;SDS011;11335;43.848;25.958;2023-08-12T13:59:16;5.80;;;3.88;;
22334;SDS011;11335;43.848;25.958;2023-08-12T14:03:00;4.90;;;3.90;;
22334;SDS011;11335;43.848;25.958;2023-08-12T14:06:45;5.85;;;3.95;;
22334;SDS011;11335;43.848;25.958;2023-08-12T14:10:29;9.27;;;3.55;;
22334;SDS011;11335;43.848;25.958;2023-08-12T14:14:13;8.10;;;4.13;;
22334;SDS011;11335;43.848;25.958;2023-08-12T14:17:57;3.75;;;3.38;;
22334;SDS011;11335;43.848;25.958;2023-08-12T14:21:44;5.38;;;3.58;;
22334;SDS011;11335;43.848;25.958;2023-08-12T14:25:29;5.15;;;3.67;;
22334;SDS011;11335;43.848;25.958;2023-08-12T14:29:14;4.65;;;3.58;;
22334;SDS011;11335;43.848;25.958;2023-08-12T14:32:58;5.05;;;3.40;;
22334;SDS011;11335;43.848;25.958;2023-08-12T14:36:42;4.03;;;3.47;;
22334;SDS011;11335;43.848;25.958;2023-08-12T14:40:26;5.13;;;3.60;;
22334;SDS011;11335;43.848;25.958;2023-08-12T14:44:11;4.63;;;3.40;;
22334;SDS011;11335;43.848;25.958;2023-08-12T14:47:55;5.78;;;3.80;;
22334;SDS011;11335;43.848;25.958;2023-08-12T14:51:41;6.40;;;3.70;;
22334;SDS011;11335;43.848;25.958;2023-08-12T14:55:26;7.22;;;3.50;;
22334;SDS011;11335;43.848;25.958;2023-08-12T14:59:10;17.63;;;15.23;;
22334;SDS011;11335;43.848;25.958;2023-08-12T15:02:55;5.53;;;3.60;;
22334;SDS011;11335;43.848;25.958;2023-08-12T15:06:40;4.20;;;3.50;;
22334;SDS011;11335;43.848;25.958;2023-08-12T15:10:25;4.47;;;3.47;;
22334;SDS011;11335;43.848;25.958;2023-08-12T15:14:10;4.63;;;3.78;;
22334;SDS011;11335;43.848;25.958;2023-08-12T15:17:54;9.70;;;3.53;;
22334;SDS011;11335;43.848;25.958;2023-08-12T15:21:39;3.83;;;3.42;;
22334;SDS011;11335;43.848;25.958;2023-08-12T15:25:23;10.65;;;3.92;;
22334;SDS011;11335;43.848;25.958;2023-08-12T15:29:10;6.55;;;3.63;;
22334;SDS011;11335;43.848;25.958;2023-08-12T15:32:55;7.97;;;3.60;;
22334;SDS011;11335;43.848;25.958;2023-08-12T15:36:39;6.03;;;3.60;;
22334;SDS011;11335;43.848;25.958;2023-08-12T15:40:24;3.95;;;3.50;;
22334;SDS011;11335;43.848;25.958;2023-08-12T15:44:11;6.97;;;3.67;;
22334;SDS011;11335;43.848;25.958;2023-08-12T15:47:57;4.05;;;3.30;;
22334;SDS011;11335;43.848;25.958;2023-08-12T15:51:41;5.15;;;3.60;;
22334;SDS011;11335;43.848;25.958;2023-08-12T15:55:25;5.20;;;3.50;;
22334;SDS011;11335;43.848;25.958;2023-08-12T15:59:09;5.50;;;3.53;;
22334;SDS011;11335;43.848;25.958;2023-08-12T16:02:56;4.50;;;3.60;;
22334;SDS011;11335;43.848;25.958;2023-08-12T16:06:40;7.57;;;3.60;;
22334;SDS011;11335;43.848;25.958;2023-08-12T16:10:24;6.10;;;3.60;;
22334;SDS011;11335;43.848;25.958;2023-08-12T16:14:09;9.63;;;3.95;;
22334;SDS011;11335;43.848;25.958;2023-08-12T16:17:53;4.22;;;3.80;;
22334;SDS011;11335;43.848;25.958;2023-08-12T16:21:37;6.90;;;3.88;;
22334;SDS011;11335;43.848;25.958;2023-08-12T16:25:21;7.85;;;4.07;;
22334;SDS011;11335;43.848;25.958;2023-08-12T16:29:06;5.43;;;3.60;;
22334;SDS011;11335;43.848;25.958;2023-08-12T16:32:50;9.27;;;4.03;;
22334;SDS011;11335;43.848;25.958;2023-08-12T16:36:35;7.95;;;3.60;;
22334;SDS011;11335;43.848;25.958;2023-08-12T16:40:19;4.82;;;4.00;;
22334;SDS011;11335;43.848;25.958;2023-08-12T16:44:04;10.45;;;4.00;;
22334;SDS011;11335;43.848;25.958;2023-08-12T16:47:49;7.90;;;4.10;;
22334;SDS011;11335;43.848;25.958;2023-08-12T16:51:33;5.88;;;3.75;;
22334;SDS011;11335;43.848;25.958;2023-08-12T16:55:17;5.32;;;4.10;;
22334;SDS011;11335;43.848;25.958;2023-08-12T16:59:01;5.53;;;4.05;;
22334;SDS011;11335;43.848;25.958;2023-08-12T17:02:49;5.75;;;3.75;;
22334;SDS011;11335;43.848;25.958;2023-08-12T17:06:33;5.45;;;3.80;;
22334;SDS011;11335;43.848;25.958;2023-08-12T17:10:18;5.25;;;3.80;;
22334;SDS011;11335;43.848;25.958;2023-08-12T17:14:02;5.78;;;4.07;;
22334;SDS011;11335;43.848;25.958;2023-08-12T17:17:47;6.38;;;4.00;;
22334;SDS011;11335;43.848;25.958;2023-08-12T17:21:31;8.50;;;4.00;;
22334;SDS011;11335;43.848;25.958;2023-08-12T17:25:15;6.03;;;3.97;;
22334;SDS011;11335;43.848;25.958;2023-08-12T17:28:59;15.95;;;5.50;;
22334;SDS011;11335;43.848;25.958;2023-08-12T17:32:44;7.72;;;4.30;;
22334;SDS011;11335;43.848;25.958;2023-08-12T17:36:28;11.30;;;4.50;;
22334;SDS011;11335;43.848;25.958;2023-08-12T17:40:12;7.25;;;4.72;;
22334;SDS011;11335;43.848;25.958;2023-08-12T17:43:57;7.43;;;4.72;;
22334;SDS011;11335;43.848;25.958;2023-08-12T17:47:44;7.75;;;4.65;;
22334;SDS011;11335;43.848;25.958;2023-08-12T17:51:37;9.00;;;4.60;;
22334;SDS011;11335;43.848;25.958;2023-08-12T17:55:21;7.97;;;5.32;;
22334;SDS011;11335;43.848;25.958;2023-08-12T17:59:05;6.88;;;4.38;;
22334;SDS011;11335;43.848;25.958;2023-08-12T18:02:50;4.75;;;4.10;;
22334;SDS011;11335;43.848;25.958;2023-08-12T18:06:35;7.60;;;4.55;;
22334;SDS011;11335;43.848;25.958;2023-08-12T18:10:19;8.13;;;4.72;;
22334;SDS011;11335;43.848;25.958;2023-08-12T18:14:03;6.78;;;4.40;;
22334;SDS011;11335;43.848;25.958;2023-08-12T18:17:48;7.05;;;5.03;;
22334;SDS011;11335;43.848;25.958;2023-08-12T18:21:32;6.78;;;4.60;;
22334;SDS011;11335;43.848;25.958;2023-08-12T18:25:16;5.65;;;4.18;;
22334;SDS011;11335;43.848;25.958;2023-08-12T18:29:00;6.43;;;4.72;;
22334;SDS011;11335;43.848;25.958;2023-08-12T18:32:46;10.27;;;4.50;;
22334;SDS011;11335;43.848;25.958;2023-08-12T18:36:30;5.72;;;4.45;;
22334;SDS011;11335;43.848;25.958;2023-08-12T18:40:14;7.57;;;4.53;;
22334;SDS011;11335;43.848;25.958;2023-08-12T18:43:59;6.65;;;4.38;;
22334;SDS011;11335;43.848;25.958;2023-08-12T18:47:43;8.07;;;4.60;;
22334;SDS011;11335;43.848;25.958;2023-08-12T18:51:27;4.85;;;4.10;;
22334;SDS011;11335;43.848;25.958;2023-08-12T18:55:11;7.93;;;4.70;;
22334;SDS011;11335;43.848;25.958;2023-08-12T18:58:55;5.60;;;4.47;;
22334;SDS011;11335;43.848;25.958;2023-08-12T19:02:40;4.90;;;4.30;;
22334;SDS011;11335;43.848;25.958;2023-08-12T19:06:25;6.75;;;4.75;;
22334;SDS011;11335;43.848;25.958;2023-08-12T19:10:09;8.00;;;4.75;;
22334;SDS011;11335;43.848;25.958;2023-08-12T19:13:54;5.97;;;4.50;;
22334;SDS011;11335;43.848;25.958;2023-08-12T19:17:39;5.18;;;4.07;;
22334;SDS011;11335;43.848;25.958;2023-08-12T19:21:23;7.90;;;4.43;;
22334;SDS011;11335;43.848;25.958;2023-08-12T19:25:07;9.57;;;4.40;;
22334;SDS011;11335;43.848;25.958;2023-08-12T19:28:51;7.55;;;4.45;;
22334;SDS011;11335;43.848;25.958;2023-08-12T19:32:49;5.30;;;4.20;;
22334;SDS011;11335;43.848;25.958;2023-08-12T19:36:33;6.47;;;4.50;;
22334;SDS011;11335;43.848;25.958;2023-08-12T19:40:17;5.30;;;4.30;;
22334;SDS011;11335;43.848;25.958;2023-08-12T19:44:02;4.82;;;4.00;;
22334;SDS011;11335;43.848;25.958;2023-08-12T19:47:47;5.53;;;4.10;;
22334;SDS011;11335;43.848;25.958;2023-08-12T19:51:31;4.75;;;4.07;;
22334;SDS011;11335;43.848;25.958;2023-08-12T19:55:15;7.25;;;4.60;;
22334;SDS011;11335;43.848;25.958;2023-08-12T19:59:00;8.65;;;4.78;;
22334;SDS011;11335;43.848;25.958;2023-08-12T20:02:45;6.07;;;4.20;;
22334;SDS011;11335;43.848;25.958;2023-08-12T20:06:29;5.10;;;4.28;;
22334;SDS011;11335;43.848;25.958;2023-08-12T20:10:15;6.60;;;4.47;;
22334;SDS011;11335;43.848;25.958;2023-08-12T20:13:59;6.22;;;4.80;;
22334;SDS011;11335;43.848;25.958;2023-08-12T20:17:43;14.38;;;4.68;;
22334;SDS011;11335;43.848;25.958;2023-08-12T20:21:27;11.27;;;4.40;;
22334;SDS011;11335;43.848;25.958;2023-08-12T20:25:12;5.53;;;4.00;;
22334;SDS011;11335;43.848;25.958;2023-08-12T20:28:56;7.78;;;4.28;;
22334;SDS011;11335;43.848;25.958;2023-08-12T20:32:40;5.50;;;4.32;;
22334;SDS011;11335;43.848;25.958;2023-08-12T20:36:25;6.50;;;4.15;;
22334;SDS011;11335;43.848;25.958;2023-08-12T20:40:10;7.22;;;4.53;;
22334;SDS011;11335;43.848;25.958;2023-08-12T20:43:54;6.63;;;4.32;;
22334;SDS011;11335;43.848;25.958;2023-08-12T20:47:38;6.43;;;4.63;;
22334;SDS011;11335;43.848;25.958;2023-08-12T20:51:22;6.53;;;4.20;;
22334;SDS011;11335;43.848;25.958;2023-08-12T20:55:07;8.88;;;4.35;;
22334;SDS011;11335;43.848;25.958;2023-08-12T20:58:51;6.90;;;4.03;;
22334;SDS011;11335;43.848;25.958;2023-08-12T21:02:35;4.57;;;4.07;;
22334;SDS011;11335;43.848;25.958;2023-08-12T21:06:19;5.82;;;4.28;;
22334;SDS011;11335;43.848;25.958;2023-08-12T21:10:04;5.88;;;4.35;;
22334;SDS011;11335;43.848;25.958;2023-08-12T21:13:49;7.40;;;4.30;;
22334;SDS011;11335;43.848;25.958;2023-08-12T21:17:33;5.45;;;4.53;;
22334;SDS011;11335;43.848;25.958;2023-08-12T21:21:17;7.35;;;4.82;;
22334;SDS011;11335;43.848;25.958;2023-08-12T21:25:02;5.45;;;4.40;;
22334;SDS011;11335;43.848;25.958;2023-08-12T21:28:46;5.03;;;4.28;;
22334;SDS011;11335;43.848;25.958;2023-08-12T21:32:30;6.20;;;4.25;;
22334;SDS011;11335;43.848;25.958;2023-08-12T21:36:15;5.10;;;3.75;;
22334;SDS011;11335;43.848;25.958;2023-08-12T21:40:02;4.80;;;4.00;;
22334;SDS011;11335;43.848;25.958;2023-08-12T21:43:46;6.97;;;4.28;;
22334;SDS011;11335;43.848;25.958;2023-08-12T21:47:30;4.90;;;3.85;;
22334;SDS011;11335;43.848;25.958;2023-08-12T21:51:15;6.78;;;3.63;;
22334;SDS011;11335;43.848;25.958;2023-08-12T21:54:59;6.10;;;4.50;;
22334;SDS011;11335;43.848;25.958;2023-08-12T21:58:43;6.03;;;4.40;;
22334;SDS011;11335;43.848;25.958;2023-08-12T22:02:27;7.88;;;4.43;;
22334;SDS011;11335;43.848;25.958;2023-08-12T22:06:12;6.05;;;4.57;;
22334;SDS011;11335;43.848;25.958;2023-08-12T22:09:56;6.75;;;4.35;;
22334;SDS011;11335;43.848;25.958;2023-08-12T22:13:40;7.57;;;4.28;;
22334;SDS011;11335;43.848;25.958;2023-08-12T22:17:25;8.38;;;5.00;;
22334;SDS011;11335;43.848;25.958;2023-08-12T22:21:10;5.75;;;4.60;;